sensor_id;sensor_type;location;lat;lon;timestamp;temperature;humidity
3232;DHT22;1628;48.884;9.210;2022-10-04T04:00:18;7.80;99.90
3232;DHT22;1628;48.884;9.210;2022-10-04T04:02:48;7.80;99.90
3232;DHT22;1628;48.884;9.210;2022-10-04T04:05:18;7.80;99.90
3232;DHT22;1628;48.884;9.210;2022-10-04T04:07:48;7.80;99.90
3232;DHT22;1628;48.884;9.210;2022-10-04T04:10:22;7.70;99.90
3232;DHT22;1628;48.884;9.210;2022-10-04T04:12:53;7.70;99.90
3232;DHT22;1628;48.884;9.210;2022-10-04T04:15:27;7.70;99.90
3232;DHT22;1628;48.884;9.210;2022-10-04T04:17:55;7.60;99.90
3232;DHT22;1628;48.884;9.210;2022-10-04T04:20:27;7.50;99.90
3232;DHT22;1628;48.884;9.210;2022-10-04T04:23:01;7.50;99.90
3232;DHT22;1628;48.884;9.210;2022-10-04T04:25:32;7.50;99.90
3232;DHT22;1628;48.884;9.210;2022-10-04T04:28:04;7.50;99.90
3232;DHT22;1628;48.884;9.210;2022-10-04T04:30:36;7.40;99.90
3232;DHT22;1628;48.884;9.210;2022-10-04T04:33:10;7.40;99.90
3232;DHT22;1628;48.884;9.210;2022-10-04T04:35:40;7.40;99.90
3232;DHT22;1628;48.884;9.210;2022-10-04T04:38:16;7.30;99.90
3232;DHT22;1628;48.884;9.210;2022-10-04T04:40:46;7.30;99.90
3232;DHT22;1628;48.884;9.210;2022-10-04T04:43:16;7.30;99.90
3232;DHT22;1628;48.884;9.210;2022-10-04T04:45:46;7.30;99.90
3232;DHT22;1628;48.884;9.210;2022-10-04T04:48:15;7.30;99.90
3232;DHT22;1628;48.884;9.210;2022-10-04T04:50:48;7.30;99.90
3232;DHT22;1628;48.884;9.210;2022-10-04T04:53:19;7.30;99.90
3232;DHT22;1628;48.884;9.210;2022-10-04T04:55:48;7.30;99.90
3232;DHT22;1628;48.884;9.210;2022-10-04T04:58:18;7.30;99.90
3232;DHT22;1628;48.884;9.210;2022-10-04T05:00:54;7.30;99.90
3232;DHT22;1628;48.884;9.210;2022-10-04T05:03:21;7.40;99.90
3232;DHT22;1628;48.884;9.210;2022-10-04T05:05:48;7.40;99.90
3232;DHT22;1628;48.884;9.210;2022-10-04T05:08:19;7.40;99.90
3232;DHT22;1628;48.884;9.210;2022-10-04T05:10:50;7.50;99.90
3232;DHT22;1628;48.884;9.210;2022-10-04T05:13:21;7.50;99.90
3232;DHT22;1628;48.884;9.210;2022-10-04T05:15:52;7.60;99.90
3232;DHT22;1628;48.884;9.210;2022-10-04T05:18:28;7.60;99.90
3232;DHT22;1628;48.884;9.210;2022-10-04T05:20:58;7.70;99.90
3232;DHT22;1628;48.884;9.210;2022-10-04T05:23:28;7.70;99.90
3232;DHT22;1628;48.884;9.210;2022-10-04T05:25:55;7.80;99.90
3232;DHT22;1628;48.884;9.210;2022-10-04T05:28:25;7.80;99.90
3232;DHT22;1628;48.884;9.210;2022-10-04T05:31:14;7.80;99.90
3232;DHT22;1628;48.884;9.210;2022-10-04T05:33:45;7.90;99.90
3232;DHT22;1628;48.884;9.210;2022-10-04T05:36:33;7.90;99.90
3232;DHT22;1628;48.884;9.210;2022-10-04T05:39:08;7.90;99.90
3232;DHT22;1628;48.884;9.210;2022-10-04T05:41:44;7.90;99.90
3232;DHT22;1628;48.884;9.210;2022-10-04T05:44:23;7.90;99.90
3232;DHT22;1628;48.884;9.210;2022-10-04T05:46:54;7.80;99.90
3232;DHT22;1628;48.884;9.210;2022-10-04T05:49:22;7.80;99.90
3232;DHT22;1628;48.884;9.210;2022-10-04T05:51:54;7.90;99.90
3232;DHT22;1628;48.884;9.210;2022-10-04T05:54:22;7.80;99.90
3232;DHT22;1628;48.884;9.210;2022-10-04T05:57:04;7.90;99.90
3232;DHT22;1628;48.884;9.210;2022-10-04T06:02:44;8.00;99.90
3232;DHT22;1628;48.884;9.210;2022-10-04T06:05:19;8.10;99.90
3232;DHT22;1628;48.884;9.210;2022-10-04T06:07:55;8.10;99.90
3232;DHT22;1628;48.884;9.210;2022-10-04T06:10:52;8.20;99.90
3232;DHT22;1628;48.884;9.210;2022-10-04T06:13:40;8.20;99.90
3232;DHT22;1628;48.884;9.210;2022-10-04T06:16:21;8.20;99.90
3232;DHT22;1628;48.884;9.210;2022-10-04T06:19:13;8.20;99.90
3232;DHT22;1628;48.884;9.210;2022-10-04T06:22:00;8.30;99.90
3232;DHT22;1628;48.884;9.210;2022-10-04T06:24:34;8.30;99.90
3232;DHT22;1628;48.884;9.210;2022-10-04T06:27:07;8.40;99.90
3232;DHT22;1628;48.884;9.210;2022-10-04T06:29:38;8.50;99.90
3232;DHT22;1628;48.884;9.210;2022-10-04T06:32:20;8.50;99.90
3232;DHT22;1628;48.884;9.210;2022-10-04T06:38:23;8.60;99.90
3232;DHT22;1628;48.884;9.210;2022-10-04T06:41:14;8.60;99.90
3232;DHT22;1628;48.884;9.210;2022-10-04T06:43:56;8.50;99.90
3232;DHT22;1628;48.884;9.210;2022-10-04T06:46:32;8.50;99.90
3232;DHT22;1628;48.884;9.210;2022-10-04T06:49:10;8.50;99.90
3232;DHT22;1628;48.884;9.210;2022-10-04T06:52:00;8.60;99.90
3232;DHT22;1628;48.884;9.210;2022-10-04T06:54:39;8.60;99.90
3232;DHT22;1628;48.884;9.210;2022-10-04T06:57:22;8.60;99.90
3232;DHT22;1628;48.884;9.210;2022-10-04T07:00:07;8.70;99.90
3232;DHT22;1628;48.884;9.210;2022-10-04T07:02:41;8.70;99.90
3232;DHT22;1628;48.884;9.210;2022-10-04T07:05:17;8.80;99.90
3232;DHT22;1628;48.884;9.210;2022-10-04T07:07:50;8.80;99.90
3232;DHT22;1628;48.884;9.210;2022-10-04T07:10:35;8.90;99.90
3232;DHT22;1628;48.884;9.210;2022-10-04T07:13:14;9.00;99.90
3232;DHT22;1628;48.884;9.210;2022-10-04T07:15:46;9.10;99.90
3232;DHT22;1628;48.884;9.210;2022-10-04T07:18:19;9.10;99.90
3232;DHT22;1628;48.884;9.210;2022-10-04T07:20:48;9.00;99.90
3232;DHT22;1628;48.884;9.210;2022-10-04T07:23:25;9.20;99.90
3232;DHT22;1628;48.884;9.210;2022-10-04T07:25:57;9.20;99.90
3232;DHT22;1628;48.884;9.210;2022-10-04T07:28:29;9.40;99.90
3232;DHT22;1628;48.884;9.210;2022-10-04T07:31:21;9.40;99.90
3232;DHT22;1628;48.884;9.210;2022-10-04T07:33:53;9.60;99.90
3232;DHT22;1628;48.884;9.210;2022-10-04T07:36:25;9.80;99.90
3232;DHT22;1628;48.884;9.210;2022-10-04T07:38:55;9.90;99.90
3232;DHT22;1628;48.884;9.210;2022-10-04T07:41:27;10.10;99.90
3232;DHT22;1628;48.884;9.210;2022-10-04T07:43:59;10.30;99.90
3232;DHT22;1628;48.884;9.210;2022-10-04T07:46:41;10.50;99.90
3232;DHT22;1628;48.884;9.210;2022-10-04T07:49:13;10.80;99.90
3232;DHT22;1628;48.884;9.210;2022-10-04T07:51:47;11.10;99.90
3232;DHT22;1628;48.884;9.210;2022-10-04T07:54:21;11.20;99.90
3232;DHT22;1628;48.884;9.210;2022-10-04T07:56:53;11.40;99.90
3232;DHT22;1628;48.884;9.210;2022-10-04T07:59:35;11.50;99.90
3232;DHT22;1628;48.884;9.210;2022-10-04T08:02:15;11.70;99.90
3232;DHT22;1628;48.884;9.210;2022-10-04T08:04:51;11.90;99.90
3232;DHT22;1628;48.884;9.210;2022-10-04T08:07:24;11.80;99.90
3232;DHT22;1628;48.884;9.210;2022-10-04T08:10:00;12.00;99.90
3232;DHT22;1628;48.884;9.210;2022-10-04T08:12:35;12.00;99.90
3232;DHT22;1628;48.884;9.210;2022-10-04T08:15:32;12.10;99.90
3232;DHT22;1628;48.884;9.210;2022-10-04T08:18:07;12.20;99.90
3232;DHT22;1628;48.884;9.210;2022-10-04T08:20:38;12.10;99.90
3232;DHT22;1628;48.884;9.210;2022-10-04T08:23:41;12.00;99.90
3232;DHT22;1628;48.884;9.210;2022-10-04T08:26:27;12.10;99.90
3232;DHT22;1628;48.884;9.210;2022-10-04T08:29:10;12.20;99.90
3232;DHT22;1628;48.884;9.210;2022-10-04T08:32:04;12.50;99.90
3232;DHT22;1628;48.884;9.210;2022-10-04T08:34:44;12.70;99.90
3232;DHT22;1628;48.884;9.210;2022-10-04T08:37:27;13.40;99.90
3232;DHT22;1628;48.884;9.210;2022-10-04T08:40:16;14.30;99.90
3232;DHT22;1628;48.884;9.210;2022-10-04T08:43:04;15.20;99.90
3232;DHT22;1628;48.884;9.210;2022-10-04T08:49:08;16.30;99.90
3232;DHT22;1628;48.884;9.210;2022-10-04T08:52:00;16.60;99.90
3232;DHT22;1628;48.884;9.210;2022-10-04T08:55:03;16.90;99.90
3232;DHT22;1628;48.884;9.210;2022-10-04T08:57:57;17.60;99.90
3232;DHT22;1628;48.884;9.210;2022-10-04T09:00:37;18.60;99.90
3232;DHT22;1628;48.884;9.210;2022-10-04T09:06:37;20.50;99.90
3232;DHT22;1628;48.884;9.210;2022-10-04T09:09:41;21.40;99.90
3232;DHT22;1628;48.884;9.210;2022-10-04T09:15:31;22.40;97.20
3232;DHT22;1628;48.884;9.210;2022-10-04T09:18:18;22.50;95.90
3232;DHT22;1628;48.884;9.210;2022-10-04T09:20:53;22.70;95.30
3232;DHT22;1628;48.884;9.210;2022-10-04T09:23:46;22.90;96.00
3232;DHT22;1628;48.884;9.210;2022-10-04T09:26:21;23.30;94.30
3232;DHT22;1628;48.884;9.210;2022-10-04T09:29:10;23.60;93.90
3232;DHT22;1628;48.884;9.210;2022-10-04T09:34:44;24.00;92.30
3232;DHT22;1628;48.884;9.210;2022-10-04T09:37:24;23.80;91.40
3232;DHT22;1628;48.884;9.210;2022-10-04T09:40:39;24.10;91.50
3232;DHT22;1628;48.884;9.210;2022-10-04T09:43:45;23.90;89.80
3232;DHT22;1628;48.884;9.210;2022-10-04T09:46:45;23.90;90.00
3232;DHT22;1628;48.884;9.210;2022-10-04T09:49:27;23.90;89.40
3232;DHT22;1628;48.884;9.210;2022-10-04T09:52:12;23.80;86.20
3232;DHT22;1628;48.884;9.210;2022-10-04T09:55:03;23.30;86.70
3232;DHT22;1628;48.884;9.210;2022-10-04T09:57:43;23.20;91.60
3232;DHT22;1628;48.884;9.210;2022-10-04T10:00:18;23.20;89.80
3232;DHT22;1628;48.884;9.210;2022-10-04T10:06:31;23.10;85.60
3232;DHT22;1628;48.884;9.210;2022-10-04T10:09:12;22.40;86.10
3232;DHT22;1628;48.884;9.210;2022-10-04T10:11:51;22.60;86.80
3232;DHT22;1628;48.884;9.210;2022-10-04T10:14:59;23.00;84.20
3232;DHT22;1628;48.884;9.210;2022-10-04T10:17:33;23.00;83.70
3232;DHT22;1628;48.884;9.210;2022-10-04T10:20:27;23.10;85.50
3232;DHT22;1628;48.884;9.210;2022-10-04T10:23:18;23.40;84.20
3232;DHT22;1628;48.884;9.210;2022-10-04T10:32:17;23.90;83.40
3232;DHT22;1628;48.884;9.210;2022-10-04T10:35:13;24.20;83.10
3232;DHT22;1628;48.884;9.210;2022-10-04T10:37:51;24.30;80.90
3232;DHT22;1628;48.884;9.210;2022-10-04T10:40:38;24.30;81.90
3232;DHT22;1628;48.884;9.210;2022-10-04T10:46:17;24.70;82.10
3232;DHT22;1628;48.884;9.210;2022-10-04T10:49:03;24.90;79.50
3232;DHT22;1628;48.884;9.210;2022-10-04T10:55:01;24.10;80.60
3232;DHT22;1628;48.884;9.210;2022-10-04T10:57:55;23.80;83.10
3232;DHT22;1628;48.884;9.210;2022-10-04T11:00:34;23.40;83.20
3232;DHT22;1628;48.884;9.210;2022-10-04T11:03:20;23.30;84.80
3232;DHT22;1628;48.884;9.210;2022-10-04T11:09:25;22.80;86.80
3232;DHT22;1628;48.884;9.210;2022-10-04T11:15:37;22.30;90.40
3232;DHT22;1628;48.884;9.210;2022-10-04T11:18:38;22.40;90.40
3232;DHT22;1628;48.884;9.210;2022-10-04T11:27:24;22.30;90.30
3232;DHT22;1628;48.884;9.210;2022-10-04T11:30:07;22.40;90.20
3232;DHT22;1628;48.884;9.210;2022-10-04T11:36:05;22.40;92.00
3232;DHT22;1628;48.884;9.210;2022-10-04T11:39:00;22.20;92.50
3232;DHT22;1628;48.884;9.210;2022-10-04T11:44:44;22.00;91.20
3232;DHT22;1628;48.884;9.210;2022-10-04T11:47:27;22.00;91.30
3232;DHT22;1628;48.884;9.210;2022-10-04T11:50:12;22.00;91.20
3232;DHT22;1628;48.884;9.210;2022-10-04T11:53:23;22.10;92.10
3232;DHT22;1628;48.884;9.210;2022-10-04T11:56:06;22.10;91.50
3232;DHT22;1628;48.884;9.210;2022-10-04T11:59:09;22.00;91.50
3232;DHT22;1628;48.884;9.210;2022-10-04T12:02:13;21.90;91.80
3232;DHT22;1628;48.884;9.210;2022-10-04T12:05:06;21.90;93.40
3232;DHT22;1628;48.884;9.210;2022-10-04T12:07:50;21.90;92.30
3232;DHT22;1628;48.884;9.210;2022-10-04T12:10:26;22.10;93.00
3232;DHT22;1628;48.884;9.210;2022-10-04T12:13:32;22.30;92.00
3232;DHT22;1628;48.884;9.210;2022-10-04T12:16:26;22.50;91.50
3232;DHT22;1628;48.884;9.210;2022-10-04T12:22:06;22.50;91.80
3232;DHT22;1628;48.884;9.210;2022-10-04T12:24:55;22.40;91.60
3232;DHT22;1628;48.884;9.210;2022-10-04T12:30:24;22.10;92.40
3232;DHT22;1628;48.884;9.210;2022-10-04T12:33:11;22.10;93.00
3232;DHT22;1628;48.884;9.210;2022-10-04T12:35:53;22.00;92.20
3232;DHT22;1628;48.884;9.210;2022-10-04T12:38:39;22.00;93.20
3232;DHT22;1628;48.884;9.210;2022-10-04T12:41:20;21.90;93.10
3232;DHT22;1628;48.884;9.210;2022-10-04T12:43:56;22.00;93.00
3232;DHT22;1628;48.884;9.210;2022-10-04T12:46:33;22.10;92.70
3232;DHT22;1628;48.884;9.210;2022-10-04T12:49:24;22.20;92.50
3232;DHT22;1628;48.884;9.210;2022-10-04T12:51:57;22.40;93.10
3232;DHT22;1628;48.884;9.210;2022-10-04T12:54:38;22.40;93.10
3232;DHT22;1628;48.884;9.210;2022-10-04T12:57:21;22.60;93.50
3232;DHT22;1628;48.884;9.210;2022-10-04T12:59:56;22.70;92.40
3232;DHT22;1628;48.884;9.210;2022-10-04T13:02:37;22.70;92.10
3232;DHT22;1628;48.884;9.210;2022-10-04T13:05:15;22.80;92.30
3232;DHT22;1628;48.884;9.210;2022-10-04T13:08:09;22.80;91.00
3232;DHT22;1628;48.884;9.210;2022-10-04T13:10:59;22.80;91.00
3232;DHT22;1628;48.884;9.210;2022-10-04T13:13:53;22.80;92.60
3232;DHT22;1628;48.884;9.210;2022-10-04T13:16:36;22.90;91.00
3232;DHT22;1628;48.884;9.210;2022-10-04T13:19:13;23.00;90.80
3232;DHT22;1628;48.884;9.210;2022-10-04T13:22:05;22.80;90.10
3232;DHT22;1628;48.884;9.210;2022-10-04T13:24:43;22.70;90.00
3232;DHT22;1628;48.884;9.210;2022-10-04T13:27:28;22.70;90.40
3232;DHT22;1628;48.884;9.210;2022-10-04T13:30:03;22.80;91.20
3232;DHT22;1628;48.884;9.210;2022-10-04T13:32:39;22.90;91.20
3232;DHT22;1628;48.884;9.210;2022-10-04T13:35:14;23.00;90.70
3232;DHT22;1628;48.884;9.210;2022-10-04T13:37:54;22.90;90.20
3232;DHT22;1628;48.884;9.210;2022-10-04T13:40:36;22.90;90.50
3232;DHT22;1628;48.884;9.210;2022-10-04T13:43:33;22.90;91.60
3232;DHT22;1628;48.884;9.210;2022-10-04T13:46:16;23.00;90.00
3232;DHT22;1628;48.884;9.210;2022-10-04T13:48:53;23.10;90.00
3232;DHT22;1628;48.884;9.210;2022-10-04T13:51:42;23.10;89.90
3232;DHT22;1628;48.884;9.210;2022-10-04T13:54:21;23.10;90.10
3232;DHT22;1628;48.884;9.210;2022-10-04T13:57:17;23.10;90.50
3232;DHT22;1628;48.884;9.210;2022-10-04T13:59:51;23.00;86.50
3232;DHT22;1628;48.884;9.210;2022-10-04T14:02:45;22.90;88.40
3232;DHT22;1628;48.884;9.210;2022-10-04T14:06:04;23.00;88.40
3232;DHT22;1628;48.884;9.210;2022-10-04T14:08:58;23.00;89.90
3232;DHT22;1628;48.884;9.210;2022-10-04T14:12:00;23.10;92.10
3232;DHT22;1628;48.884;9.210;2022-10-04T14:14:56;23.00;92.30
3232;DHT22;1628;48.884;9.210;2022-10-04T14:17:53;23.00;91.80
3232;DHT22;1628;48.884;9.210;2022-10-04T14:23:52;22.60;94.00
3232;DHT22;1628;48.884;9.210;2022-10-04T14:29:49;22.50;93.90
3232;DHT22;1628;48.884;9.210;2022-10-04T14:35:23;22.30;93.30
3232;DHT22;1628;48.884;9.210;2022-10-04T14:38:18;22.20;94.00
3232;DHT22;1628;48.884;9.210;2022-10-04T14:44:12;22.00;93.90
3232;DHT22;1628;48.884;9.210;2022-10-04T14:46:53;21.90;94.20
3232;DHT22;1628;48.884;9.210;2022-10-04T14:49:38;21.80;93.60
3232;DHT22;1628;48.884;9.210;2022-10-04T14:52:19;21.80;93.50
3232;DHT22;1628;48.884;9.210;2022-10-04T14:54:51;21.80;92.40
3232;DHT22;1628;48.884;9.210;2022-10-04T14:57:26;21.80;93.20
3232;DHT22;1628;48.884;9.210;2022-10-04T15:00:17;21.80;93.50
3232;DHT22;1628;48.884;9.210;2022-10-04T15:03:09;21.80;93.60
3232;DHT22;1628;48.884;9.210;2022-10-04T15:08:58;21.80;93.70
3232;DHT22;1628;48.884;9.210;2022-10-04T15:11:43;21.80;93.30
3232;DHT22;1628;48.884;9.210;2022-10-04T15:14:33;21.80;92.60
3232;DHT22;1628;48.884;9.210;2022-10-04T15:17:07;21.70;92.30
3232;DHT22;1628;48.884;9.210;2022-10-04T15:19:54;21.70;92.60
3232;DHT22;1628;48.884;9.210;2022-10-04T15:22:27;21.60;92.40
3232;DHT22;1628;48.884;9.210;2022-10-04T15:24:56;21.50;92.50
3232;DHT22;1628;48.884;9.210;2022-10-04T15:27:46;21.40;92.70
3232;DHT22;1628;48.884;9.210;2022-10-04T15:30:35;21.30;92.70
3232;DHT22;1628;48.884;9.210;2022-10-04T15:33:24;21.20;92.50
3232;DHT22;1628;48.884;9.210;2022-10-04T15:38:52;21.00;93.80
3232;DHT22;1628;48.884;9.210;2022-10-04T15:41:31;20.90;93.90
3232;DHT22;1628;48.884;9.210;2022-10-04T15:44:32;20.70;94.10
3232;DHT22;1628;48.884;9.210;2022-10-04T15:47:11;20.70;94.20
3232;DHT22;1628;48.884;9.210;2022-10-04T15:49:50;20.50;95.20
3232;DHT22;1628;48.884;9.210;2022-10-04T15:52:52;20.50;96.30
3232;DHT22;1628;48.884;9.210;2022-10-04T15:55:21;20.30;96.70
3232;DHT22;1628;48.884;9.210;2022-10-04T16:01:05;20.10;97.60
3232;DHT22;1628;48.884;9.210;2022-10-04T16:03:42;20.00;98.00
3232;DHT22;1628;48.884;9.210;2022-10-04T16:06:18;19.90;98.10
3232;DHT22;1628;48.884;9.210;2022-10-04T16:09:15;19.80;98.40
3232;DHT22;1628;48.884;9.210;2022-10-04T16:11:51;19.70;99.00
3232;DHT22;1628;48.884;9.210;2022-10-04T16:14:31;19.60;99.10
3232;DHT22;1628;48.884;9.210;2022-10-04T16:17:14;19.60;98.70
3232;DHT22;1628;48.884;9.210;2022-10-04T16:19:56;19.50;98.30
3232;DHT22;1628;48.884;9.210;2022-10-04T16:22:27;19.50;98.50
3232;DHT22;1628;48.884;9.210;2022-10-04T16:24:58;19.40;99.10
3232;DHT22;1628;48.884;9.210;2022-10-04T16:27:58;19.30;99.30
3232;DHT22;1628;48.884;9.210;2022-10-04T16:30:30;19.30;99.90
3232;DHT22;1628;48.884;9.210;2022-10-04T16:33:12;19.20;99.90
3232;DHT22;1628;48.884;9.210;2022-10-04T16:35:49;19.10;99.90
3232;DHT22;1628;48.884;9.210;2022-10-04T16:38:26;19.00;99.90
3232;DHT22;1628;48.884;9.210;2022-10-04T16:41:09;18.90;99.90
3232;DHT22;1628;48.884;9.210;2022-10-04T16:43:45;18.80;99.90
3232;DHT22;1628;48.884;9.210;2022-10-04T16:46:19;18.80;99.90
3232;DHT22;1628;48.884;9.210;2022-10-04T16:48:52;18.70;99.90
3232;DHT22;1628;48.884;9.210;2022-10-04T16:51:36;18.60;99.90
3232;DHT22;1628;48.884;9.210;2022-10-04T16:54:41;18.50;99.90
3232;DHT22;1628;48.884;9.210;2022-10-04T16:57:18;18.50;99.90
3232;DHT22;1628;48.884;9.210;2022-10-04T16:59:50;18.30;99.90
3232;DHT22;1628;48.884;9.210;2022-10-04T17:02:31;18.20;99.90
3232;DHT22;1628;48.884;9.210;2022-10-04T17:05:06;18.20;99.90
3232;DHT22;1628;48.884;9.210;2022-10-04T17:07:56;18.20;99.90
3232;DHT22;1628;48.884;9.210;2022-10-04T17:10:33;18.10;99.90
3232;DHT22;1628;48.884;9.210;2022-10-04T17:13:17;18.00;99.90
3232;DHT22;1628;48.884;9.210;2022-10-04T17:15:49;17.90;99.90
3232;DHT22;1628;48.884;9.210;2022-10-04T17:18:30;17.90;99.90
3232;DHT22;1628;48.884;9.210;2022-10-04T17:21:01;17.80;99.90
3232;DHT22;1628;48.884;9.210;2022-10-04T17:24:03;17.70;99.90
3232;DHT22;1628;48.884;9.210;2022-10-04T17:26:48;17.60;99.90
3232;DHT22;1628;48.884;9.210;2022-10-04T17:29:30;17.60;99.90
3232;DHT22;1628;48.884;9.210;2022-10-04T17:32:06;17.50;99.90
3232;DHT22;1628;48.884;9.210;2022-10-04T17:34:47;17.40;99.90
3232;DHT22;1628;48.884;9.210;2022-10-04T17:37:25;17.40;99.90
3232;DHT22;1628;48.884;9.210;2022-10-04T17:40:04;17.30;99.90
3232;DHT22;1628;48.884;9.210;2022-10-04T17:42:41;17.20;99.90
3232;DHT22;1628;48.884;9.210;2022-10-04T17:45:20;17.20;99.90
3232;DHT22;1628;48.884;9.210;2022-10-04T17:47:57;17.20;99.90
3232;DHT22;1628;48.884;9.210;2022-10-04T17:50:49;17.10;99.90
3232;DHT22;1628;48.884;9.210;2022-10-04T17:53:41;17.00;99.90
3232;DHT22;1628;48.884;9.210;2022-10-04T17:56:30;17.00;99.90
3232;DHT22;1628;48.884;9.210;2022-10-04T17:58:58;16.90;99.90
3232;DHT22;1628;48.884;9.210;2022-10-04T18:01:34;16.90;99.90
3232;DHT22;1628;48.884;9.210;2022-10-04T18:04:07;16.80;99.90
3232;DHT22;1628;48.884;9.210;2022-10-04T18:06:38;16.80;99.90
3232;DHT22;1628;48.884;9.210;2022-10-04T18:09:17;16.70;99.90
3232;DHT22;1628;48.884;9.210;2022-10-04T18:11:48;16.70;99.90
3232;DHT22;1628;48.884;9.210;2022-10-04T18:17:07;16.50;99.90
3232;DHT22;1628;48.884;9.210;2022-10-04T18:19:41;16.50;99.90
3232;DHT22;1628;48.884;9.210;2022-10-04T18:22:12;16.40;99.90
3232;DHT22;1628;48.884;9.210;2022-10-04T18:24:41;16.30;99.90
3232;DHT22;1628;48.884;9.210;2022-10-04T18:27:16;16.30;99.90
3232;DHT22;1628;48.884;9.210;2022-10-04T18:29:56;16.20;99.90
3232;DHT22;1628;48.884;9.210;2022-10-04T18:32:33;16.10;99.90
3232;DHT22;1628;48.884;9.210;2022-10-04T18:35:19;16.00;99.90
3232;DHT22;1628;48.884;9.210;2022-10-04T18:37:48;16.00;99.90
3232;DHT22;1628;48.884;9.210;2022-10-04T18:40:16;15.90;99.90
3232;DHT22;1628;48.884;9.210;2022-10-04T18:42:49;15.80;99.90
3232;DHT22;1628;48.884;9.210;2022-10-04T18:45:19;15.70;99.90
3232;DHT22;1628;48.884;9.210;2022-10-04T18:47:48;15.70;99.90
3232;DHT22;1628;48.884;9.210;2022-10-04T18:50:23;15.60;99.90
3232;DHT22;1628;48.884;9.210;2022-10-04T18:52:58;15.50;99.90
3232;DHT22;1628;48.884;9.210;2022-10-04T18:55:36;15.40;99.90
3232;DHT22;1628;48.884;9.210;2022-10-04T18:58:14;15.40;99.90
3232;DHT22;1628;48.884;9.210;2022-10-04T19:01:12;15.30;99.90
3232;DHT22;1628;48.884;9.210;2022-10-04T19:04:02;15.20;99.90
3232;DHT22;1628;48.884;9.210;2022-10-04T19:06:32;15.20;99.90
3232;DHT22;1628;48.884;9.210;2022-10-04T19:09:05;15.20;99.90
3232;DHT22;1628;48.884;9.210;2022-10-04T19:11:39;15.10;99.90
3232;DHT22;1628;48.884;9.210;2022-10-04T19:14:15;15.00;99.90
3232;DHT22;1628;48.884;9.210;2022-10-04T19:16:51;15.00;99.90
3232;DHT22;1628;48.884;9.210;2022-10-04T19:19:43;15.00;99.90
3232;DHT22;1628;48.884;9.210;2022-10-04T19:22:31;14.90;99.90
3232;DHT22;1628;48.884;9.210;2022-10-04T19:27:58;14.80;99.90
3232;DHT22;1628;48.884;9.210;2022-10-04T19:30:38;14.70;99.90
3232;DHT22;1628;48.884;9.210;2022-10-04T19:33:14;14.70;99.90
3232;DHT22;1628;48.884;9.210;2022-10-04T19:35:57;14.60;99.90
3232;DHT22;1628;48.884;9.210;2022-10-04T19:38:41;14.60;99.90
3232;DHT22;1628;48.884;9.210;2022-10-04T19:41:15;14.50;99.90
3232;DHT22;1628;48.884;9.210;2022-10-04T19:43:53;14.50;99.90
3232;DHT22;1628;48.884;9.210;2022-10-04T19:46:30;14.50;99.90
3232;DHT22;1628;48.884;9.210;2022-10-04T19:49:00;14.50;99.90
3232;DHT22;1628;48.884;9.210;2022-10-04T19:51:33;14.50;99.90
3232;DHT22;1628;48.884;9.210;2022-10-04T19:54:06;14.40;99.90
3232;DHT22;1628;48.884;9.210;2022-10-04T19:56:37;14.40;99.90
3232;DHT22;1628;48.884;9.210;2022-10-04T19:59:13;14.40;99.90
3232;DHT22;1628;48.884;9.210;2022-10-04T20:01:41;14.40;99.90
3232;DHT22;1628;48.884;9.210;2022-10-04T20:04:11;14.30;99.90
3232;DHT22;1628;48.884;9.210;2022-10-04T20:06:59;14.30;99.90
3232;DHT22;1628;48.884;9.210;2022-10-04T20:09:31;14.30;99.90
3232;DHT22;1628;48.884;9.210;2022-10-04T20:11:58;14.30;99.90
3232;DHT22;1628;48.884;9.210;2022-10-04T20:14:42;14.30;99.90
3232;DHT22;1628;48.884;9.210;2022-10-04T20:17:28;14.20;99.90
3232;DHT22;1628;48.884;9.210;2022-10-04T20:19:55;14.30;99.90
3232;DHT22;1628;48.884;9.210;2022-10-04T20:22:55;14.20;99.90
3232;DHT22;1628;48.884;9.210;2022-10-04T20:25:58;14.20;99.90
3232;DHT22;1628;48.884;9.210;2022-10-04T20:28:39;14.10;99.90
3232;DHT22;1628;48.884;9.210;2022-10-04T20:31:07;14.10;99.90
3232;DHT22;1628;48.884;9.210;2022-10-04T20:33:47;14.00;99.90
3232;DHT22;1628;48.884;9.210;2022-10-04T20:36:48;14.00;99.90
3232;DHT22;1628;48.884;9.210;2022-10-04T20:42:29;13.90;99.90
3232;DHT22;1628;48.884;9.210;2022-10-04T20:44:57;13.90;99.90
3232;DHT22;1628;48.884;9.210;2022-10-04T20:47:39;13.80;99.90
3232;DHT22;1628;48.884;9.210;2022-10-04T20:50:16;13.80;99.90
3232;DHT22;1628;48.884;9.210;2022-10-04T20:52:46;13.70;99.90
3232;DHT22;1628;48.884;9.210;2022-10-04T20:55:19;13.80;99.90
3232;DHT22;1628;48.884;9.210;2022-10-04T20:57:47;13.80;99.90
3232;DHT22;1628;48.884;9.210;2022-10-04T21:00:19;13.80;99.90
3232;DHT22;1628;48.884;9.210;2022-10-04T21:02:47;13.80;99.90
3232;DHT22;1628;48.884;9.210;2022-10-04T21:05:17;13.70;99.90
3232;DHT22;1628;48.884;9.210;2022-10-04T21:07:47;13.80;99.90
3232;DHT22;1628;48.884;9.210;2022-10-04T21:10:16;13.80;99.90
3232;DHT22;1628;48.884;9.210;2022-10-04T21:12:43;13.80;99.90
3232;DHT22;1628;48.884;9.210;2022-10-04T21:15:20;13.80;99.90
3232;DHT22;1628;48.884;9.210;2022-10-04T21:18:01;13.80;99.90
3232;DHT22;1628;48.884;9.210;2022-10-04T21:20:43;13.70;99.90
3232;DHT22;1628;48.884;9.210;2022-10-04T21:23:17;13.70;99.90
3232;DHT22;1628;48.884;9.210;2022-10-04T21:25:45;13.60;99.90
3232;DHT22;1628;48.884;9.210;2022-10-04T21:28:36;13.60;99.90
3232;DHT22;1628;48.884;9.210;2022-10-04T21:31:04;13.60;99.90
3232;DHT22;1628;48.884;9.210;2022-10-04T21:33:31;13.60;99.90
3232;DHT22;1628;48.884;9.210;2022-10-04T21:35:58;13.60;99.90
3232;DHT22;1628;48.884;9.210;2022-10-04T21:38:25;13.60;99.90
3232;DHT22;1628;48.884;9.210;2022-10-04T21:40:53;13.60;99.90
3232;DHT22;1628;48.884;9.210;2022-10-04T21:43:20;13.60;99.90
3232;DHT22;1628;48.884;9.210;2022-10-04T21:45:47;13.60;99.90
3232;DHT22;1628;48.884;9.210;2022-10-04T21:48:15;13.60;99.90
3232;DHT22;1628;48.884;9.210;2022-10-04T21:50:42;13.60;99.90
3232;DHT22;1628;48.884;9.210;2022-10-04T21:53:09;13.60;99.90
3232;DHT22;1628;48.884;9.210;2022-10-04T21:55:35;13.50;99.90
3232;DHT22;1628;48.884;9.210;2022-10-04T21:58:02;13.50;99.90
